Time;durP1;ratioP1;P1;durP2;ratioP2;P2;SDS_P1;SDS_P2;PMS_P1;PMS_P2;Temp;Humidity;BMP_temperature;BMP_pressure;BME280_temperature;BME280_humidity;BME280_pressure;Samples;Min_cycle;Max_cycle;Signal;HPM_P1;HPM_P2
2022/10/04 00:01:57;;;;;;;0.98;0.98;;;8.30;99.90;;;;;;5016148;28;20575;-68
2022/10/04 00:04:30;;;;;;;1.13;0.52;;;8.30;99.90;;;;;;5016644;28;20183;-67
2022/10/04 00:07:05;;;;;;;1.20;1.20;;;8.30;99.90;;;;;;5016283;28;20183;-71
2022/10/04 00:09:40;;;;;;;0.90;0.88;;;8.40;99.90;;;;;;5016211;28;20229;-68
2022/10/04 00:12:13;;;;;;;7.13;1.10;;;8.30;99.90;;;;;;5016228;28;20206;-67
2022/10/04 00:14:42;;;;;;;1.10;1.10;;;8.20;99.90;;;;;;5016139;28;20190;-67
2022/10/04 00:17:11;;;;;;;10.00;2.00;;;8.20;99.90;;;;;;5016388;28;20554;-68
2022/10/04 00:19:45;;;;;;;1.13;1.13;;;8.10;99.90;;;;;;5016205;28;20197;-69
2022/10/04 00:22:16;;;;;;;1.77;1.05;;;8.10;99.90;;;;;;5016349;28;20178;-68
2022/10/04 00:25:13;;;;;;;0.85;0.85;;;8.20;99.90;;;;;;5015680;28;20183;-67
2022/10/04 00:28:00;;;;;;;0.40;0.40;;;8.20;99.90;;;;;;5016009;28;20201;-69
2022/10/04 00:30:36;;;;;;;0.50;0.50;;;8.20;99.90;;;;;;5014572;28;20175;-68
2022/10/04 00:33:03;;;;;;;0.82;0.82;;;8.20;99.90;;;;;;5015563;28;20177;-68
2022/10/04 00:35:28;;;;;;;0.50;0.50;;;8.20;99.90;;;;;;5015610;28;20200;-71
2022/10/04 00:38:07;;;;;;;0.70;0.70;;;8.20;99.90;;;;;;5015766;28;20168;-70
2022/10/04 00:40:59;;;;;;;1.08;1.08;;;8.10;99.90;;;;;;5015311;28;20202;-68
2022/10/04 00:43:30;;;;;;;1.15;1.15;;;8.00;99.90;;;;;;5010912;28;20218;-70
2022/10/04 00:46:02;;;;;;;0.40;0.40;;;8.00;99.90;;;;;;5015474;28;20237;-68
2022/10/04 00:48:48;;;;;;;1.02;0.98;;;8.10;99.90;;;;;;5015770;28;20588;-68
2022/10/04 00:51:13;;;;;;;1.30;1.30;;;8.10;99.90;;;;;;5015821;28;20175;-69
2022/10/04 00:53:48;;;;;;;0.60;0.60;;;8.10;99.90;;;;;;5015615;28;20222;-68
2022/10/04 00:56:22;;;;;;;0.65;0.65;;;8.10;99.90;;;;;;5015265;28;20725;-68
2022/10/04 00:59:12;;;;;;;0.70;0.70;;;8.20;99.90;;;;;;5013989;28;20194;-68
2022/10/04 01:01:38;;;;;;;1.15;1.05;;;8.10;99.90;;;;;;5015197;28;20175;-69
2022/10/04 01:04:13;;;;;;;2.97;1.00;;;8.10;99.90;;;;;;5015343;28;20209;-68
2022/10/04 01:06:40;;;;;;;0.30;0.30;;;8.10;99.90;;;;;;5015050;28;20564;-70
2022/10/04 01:09:09;;;;;;;8.57;1.88;;;8.10;99.90;;;;;;5014926;28;20179;-69
2022/10/04 01:11:40;;;;;;;0.40;0.40;;;8.10;99.90;;;;;;5015434;28;20169;-68
2022/10/04 01:14:19;;;;;;;0.93;0.93;;;8.00;99.90;;;;;;5015059;28;20300;-70
2022/10/04 01:16:45;;;;;;;1.10;1.10;;;8.00;99.90;;;;;;5014956;28;20206;-69
2022/10/04 01:19:27;;;;;;;0.40;0.40;;;7.90;99.90;;;;;;5014542;28;20268;-67
2022/10/04 01:22:04;;;;;;;0.40;0.40;;;8.00;99.90;;;;;;5013815;28;20183;-69
2022/10/04 01:24:38;;;;;;;0.47;0.47;;;7.90;99.90;;;;;;5015107;28;20181;-71
2022/10/04 01:27:39;;;;;;;0.50;0.50;;;7.90;99.90;;;;;;5014669;28;20596;-67
2022/10/04 01:30:15;;;;;;;0.40;0.40;;;7.90;99.90;;;;;;5014531;28;20168;-70
2022/10/04 01:32:41;;;;;;;0.30;0.30;;;7.90;99.90;;;;;;5014997;28;20261;-68
2022/10/04 01:35:10;;;;;;;0.70;0.70;;;7.90;99.90;;;;;;5014821;28;20186;-70
2022/10/04 01:37:38;;;;;;;1.02;1.02;;;8.00;99.90;;;;;;5014452;28;20175;-67
2022/10/04 01:40:05;;;;;;;0.80;0.80;;;7.90;99.90;;;;;;5014399;28;20167;-69
2022/10/04 01:43:00;;;;;;;0.50;0.50;;;7.90;99.90;;;;;;5014196;28;20175;-68
2022/10/04 01:45:41;;;;;;;0.50;0.50;;;7.90;99.90;;;;;;5012985;28;20221;-71
2022/10/04 01:48:20;;;;;;;0.95;0.50;;;7.90;99.90;;;;;;5014602;28;20229;-68
2022/10/04 01:50:57;;;;;;;0.50;0.50;;;7.90;99.90;;;;;;5014192;28;20166;-68
2022/10/04 01:53:30;;;;;;;3.53;1.35;;;8.00;99.90;;;;;;5014607;28;20174;-69
2022/10/04 01:56:09;;;;;;;0.60;0.50;;;8.20;99.90;;;;;;5014738;28;20206;-71
2022/10/04 01:59:04;;;;;;;0.45;0.45;;;8.10;99.90;;;;;;5014428;28;20175;-66
2022/10/04 02:01:51;;;;;;;0.73;0.73;;;8.10;99.90;;;;;;5013362;28;20189;-68
2022/10/04 02:04:23;;;;;;;0.77;0.70;;;8.10;99.90;;;;;;5014643;28;20182;-68
2022/10/04 02:06:54;;;;;;;1.02;1.02;;;8.20;99.90;;;;;;5014184;28;20337;-70
2022/10/04 02:09:31;;;;;;;0.40;0.40;;;8.30;99.90;;;;;;5013814;28;20193;-69
2022/10/04 02:11:58;;;;;;;0.50;0.50;;;8.30;99.90;;;;;;5014407;28;20248;-68
2022/10/04 02:14:31;;;;;;;0.65;0.65;;;8.30;99.90;;;;;;5014087;28;20175;-69
2022/10/04 02:17:00;;;;;;;0.63;0.63;;;8.20;99.90;;;;;;5014601;28;20184;-67
2022/10/04 02:19:34;;;;;;;0.60;0.60;;;8.20;99.90;;;;;;5013615;28;20646;-68
2022/10/04 02:22:03;;;;;;;0.88;0.77;;;8.20;99.90;;;;;;5014117;28;20181;-68
2022/10/04 02:24:33;;;;;;;0.30;0.30;;;8.30;99.90;;;;;;5012878;28;20248;-70
2022/10/04 02:26:58;;;;;;;0.93;0.82;;;8.30;99.90;;;;;;5014340;28;20193;-68
2022/10/04 02:29:25;;;;;;;1.00;0.90;;;8.30;99.90;;;;;;5014093;28;20178;-70
2022/10/04 02:34:36;;;;;;;0.98;0.98;;;8.20;99.90;;;;;;5013973;28;20182;-70
2022/10/04 02:37:04;;;;;;;0.30;0.30;;;8.00;99.90;;;;;;5014178;28;20185;-68
2022/10/04 02:39:37;;;;;;;0.30;0.30;;;8.00;99.90;;;;;;5013595;28;20179;-68
2022/10/04 02:42:17;;;;;;;0.73;0.73;;;8.00;99.90;;;;;;5013912;28;20155;-69
2022/10/04 02:45:11;;;;;;;0.52;0.52;;;8.00;99.90;;;;;;5013699;28;20225;-69
2022/10/04 02:47:49;;;;;;;1.02;0.93;;;7.90;99.90;;;;;;5013537;28;20214;-69
2022/10/04 02:50:40;;;;;;;0.70;0.70;;;8.10;99.90;;;;;;5013656;28;20553;-69
2022/10/04 02:53:36;;;;;;;0.40;0.40;;;8.10;99.90;;;;;;5008856;28;20213;-69
2022/10/04 02:56:02;;;;;;;0.63;0.63;;;8.10;99.90;;;;;;5002938;28;20211;-68
2022/10/04 02:58:30;;;;;;;0.40;0.40;;;8.10;99.90;;;;;;5017953;28;20229;-68
2022/10/04 03:00:59;;;;;;;0.30;0.30;;;8.20;99.90;;;;;;5017122;28;20170;-69
2022/10/04 03:03:30;;;;;;;0.30;0.30;;;8.20;99.90;;;;;;5017436;28;20268;-67
2022/10/04 03:06:05;;;;;;;2.13;2.03;;;8.20;99.90;;;;;;5017449;28;20564;-70
2022/10/04 03:08:54;;;;;;;1.55;1.55;;;8.20;99.90;;;;;;5017592;28;20619;-68
2022/10/04 03:11:23;;;;;;;1.08;1.02;;;8.20;99.90;;;;;;5017275;28;20183;-68
2022/10/04 03:13:53;;;;;;;0.55;0.55;;;8.20;99.90;;;;;;5017296;28;20624;-66
2022/10/04 03:16:19;;;;;;;0.40;0.40;;;8.20;99.90;;;;;;5017280;28;20226;-71
2022/10/04 03:18:47;;;;;;;0.98;0.98;;;8.20;99.90;;;;;;5017290;28;20206;-69
2022/10/04 03:21:16;;;;;;;0.85;0.85;;;8.10;99.90;;;;;;5017481;28;20179;-71
2022/10/04 03:23:42;;;;;;;0.70;0.70;;;8.20;99.90;;;;;;5017102;28;20232;-67
2022/10/04 03:26:32;;;;;;;0.40;0.40;;;8.20;99.90;;;;;;5016776;28;20207;-70
2022/10/04 03:28:59;;;;;;;2.05;1.95;;;8.20;99.90;;;;;;5017144;28;20267;-70
2022/10/04 03:31:27;;;;;;;0.50;0.50;;;8.20;99.90;;;;;;5017213;28;20630;-70
2022/10/04 03:33:56;;;;;;;0.52;0.50;;;8.10;99.90;;;;;;5017018;28;20177;-70
2022/10/04 03:36:24;;;;;;;0.65;0.65;;;8.10;99.90;;;;;;5016672;28;20637;-69
2022/10/04 03:38:53;;;;;;;0.90;0.90;;;8.10;99.90;;;;;;5016729;28;20187;-67
2022/10/04 03:41:24;;;;;;;0.75;0.75;;;8.10;99.90;;;;;;5016886;28;20183;-69
2022/10/04 03:43:51;;;;;;;0.40;0.40;;;8.10;99.90;;;;;;5017095;28;20661;-68
2022/10/04 03:46:18;;;;;;;0.95;0.95;;;8.00;99.90;;;;;;5016268;28;20224;-69
2022/10/04 03:48:55;;;;;;;1.17;1.17;;;7.90;99.90;;;;;;5016306;28;20174;-70
2022/10/04 03:51:23;;;;;;;0.88;0.73;;;7.90;99.90;;;;;;5015151;28;20669;-69
2022/10/04 03:53:52;;;;;;;1.95;0.73;;;7.90;99.90;;;;;;5016677;28;20178;-69
2022/10/04 03:56:35;;;;;;;0.40;0.40;;;8.00;99.90;;;;;;5016624;28;20202;-68
2022/10/04 03:59:06;;;;;;;0.63;0.63;;;8.00;99.90;;;;;;5016335;28;20204;-69
2022/10/04 04:01:48;;;;;;;0.50;0.50;;;8.10;99.90;;;;;;5016281;28;20181;-69
2022/10/04 04:04:27;;;;;;;0.50;0.50;;;8.10;99.90;;;;;;5016484;28;20180;-67
2022/10/04 04:06:56;;;;;;;0.63;0.63;;;8.00;99.90;;;;;;5013330;28;20305;-67
2022/10/04 04:09:41;;;;;;;1.23;1.02;;;8.00;99.90;;;;;;5015835;28;20162;-67
2022/10/04 04:12:15;;;;;;;0.90;0.77;;;8.00;99.90;;;;;;5016161;28;20170;-68
2022/10/04 04:14:42;;;;;;;0.65;0.65;;;8.30;99.90;;;;;;5015888;28;20160;-71
2022/10/04 04:17:39;;;;;;;1.67;1.67;;;7.90;99.90;;;;;;5015913;28;20179;-67
2022/10/04 04:20:16;;;;;;;0.40;0.40;;;7.90;99.90;;;;;;5014984;28;20218;-67
2022/10/04 04:22:47;;;;;;;0.55;0.50;;;7.90;99.90;;;;;;5015923;28;20182;-69
2022/10/04 04:25:16;;;;;;;0.60;0.60;;;7.90;99.90;;;;;;5015635;28;20193;-70
2022/10/04 04:27:45;;;;;;;0.70;0.70;;;8.00;99.90;;;;;;5015541;28;20249;-70
2022/10/04 04:30:16;;;;;;;0.40;0.40;;;8.10;99.90;;;;;;5015402;28;20221;-68
2022/10/04 04:32:48;;;;;;;0.40;0.40;;;8.10;99.90;;;;;;5015953;28;20160;-69
2022/10/04 04:35:21;;;;;;;0.40;0.40;;;8.00;99.90;;;;;;5015564;28;20294;-70
2022/10/04 04:38:05;;;;;;;0.40;0.40;;;8.00;99.90;;;;;;5015364;28;20246;-69
2022/10/04 04:40:31;;;;;;;0.30;0.30;;;7.90;99.90;;;;;;5015220;28;20186;-67
2022/10/04 04:43:00;;;;;;;0.50;0.40;;;8.00;99.90;;;;;;5015261;28;20165;-68
2022/10/04 04:45:29;;;;;;;0.57;0.50;;;8.00;99.90;;;;;;5015135;28;20256;-68
2022/10/04 04:47:56;;;;;;;0.35;0.35;;;8.00;99.90;;;;;;5015475;28;20186;-69
2022/10/04 04:50:23;;;;;;;1.50;0.93;;;8.00;99.90;;;;;;5015096;28;20228;-68
2022/10/04 04:52:56;;;;;;;0.85;0.82;;;7.90;99.90;;;;;;5015268;28;20228;-70
2022/10/04 04:55:49;;;;;;;1.02;0.88;;;7.90;99.90;;;;;;5015200;28;20229;-69
2022/10/04 04:58:20;;;;;;;0.30;0.30;;;7.80;99.90;;;;;;5014968;28;20174;-67
2022/10/04 05:00:55;;;;;;;0.40;0.40;;;7.90;99.90;;;;;;5014865;28;20169;-67
2022/10/04 05:03:21;;;;;;;0.98;0.98;;;8.00;99.90;;;;;;5015142;28;20219;-70
2022/10/04 05:05:47;;;;;;;1.08;1.08;;;8.10;99.90;;;;;;5014723;28;20624;-68
2022/10/04 05:08:27;;;;;;;0.60;0.60;;;8.20;99.90;;;;;;5014864;28;20199;-70
2022/10/04 05:11:20;;;;;;;0.55;0.55;;;8.10;99.90;;;;;;5014723;28;20401;-68
2022/10/04 05:13:53;;;;;;;0.40;0.40;;;8.10;99.90;;;;;;5013182;28;20273;-69
2022/10/04 05:16:27;;;;;;;0.50;0.50;;;8.10;99.90;;;;;;5014355;28;20292;-66
2022/10/04 05:18:59;;;;;;;0.40;0.40;;;8.10;99.90;;;;;;5014385;28;20209;-68
2022/10/04 05:21:28;;;;;;;0.93;0.93;;;8.20;99.90;;;;;;5014596;28;20186;-68
2022/10/04 05:23:57;;;;;;;3.22;1.35;;;8.10;99.90;;;;;;5014736;28;20189;-67
2022/10/04 05:26:29;;;;;;;0.52;0.52;;;8.00;99.90;;;;;;5014394;28;20198;-69
2022/10/04 05:29:00;;;;;;;0.38;0.38;;;8.10;99.90;;;;;;5013827;28;20175;-67
2022/10/04 05:31:54;;;;;;;0.65;0.65;;;8.00;99.90;;;;;;5014413;28;20227;-68
2022/10/04 05:34:23;;;;;;;0.75;0.55;;;8.00;99.90;;;;;;5014498;28;20676;-70
2022/10/04 05:36:51;;;;;;;0.95;0.95;;;8.10;99.90;;;;;;5014901;28;20730;-67
2022/10/04 05:39:36;;;;;;;0.65;0.65;;;8.10;99.90;;;;;;5014371;28;20174;-69
2022/10/04 05:42:17;;;;;;;1.08;1.08;;;8.30;99.90;;;;;;5014441;28;20174;-69
2022/10/04 05:44:52;;;;;;;0.30;0.30;;;8.20;99.90;;;;;;5014134;28;20213;-68
2022/10/04 05:47:22;;;;;;;0.90;0.63;;;8.20;99.90;;;;;;5012820;28;20210;-68
2022/10/04 05:49:52;;;;;;;1.17;1.17;;;8.20;99.90;;;;;;5012158;28;20205;-67
2022/10/04 05:52:29;;;;;;;1.73;0.82;;;8.20;99.90;;;;;;5011686;28;20174;-68
2022/10/04 05:55:32;;;;;;;0.75;0.75;;;8.20;99.90;;;;;;5014132;28;20727;-67
2022/10/04 05:58:17;;;;;;;0.40;0.40;;;8.20;99.90;;;;;;5012796;28;20185;-70
2022/10/04 06:01:19;;;;;;;2.15;1.73;;;8.30;99.90;;;;;;5013968;28;20183;-66
2022/10/04 06:03:58;;;;;;;0.40;0.40;;;8.50;99.90;;;;;;5011716;28;20186;-69
2022/10/04 06:06:39;;;;;;;0.82;0.47;;;8.60;99.90;;;;;;5012810;28;20213;-66
2022/10/04 06:09:17;;;;;;;0.50;0.50;;;8.70;99.90;;;;;;5014107;28;20190;-68
2022/10/04 06:11:43;;;;;;;0.90;0.77;;;8.70;99.90;;;;;;5014012;28;20531;-69
2022/10/04 06:14:31;;;;;;;0.30;0.30;;;8.80;99.90;;;;;;5014016;28;20174;-68
2022/10/04 06:17:13;;;;;;;0.77;0.75;;;9.00;99.90;;;;;;5014245;28;20159;-68
2022/10/04 06:20:00;;;;;;;0.45;0.43;;;9.20;99.90;;;;;;5013755;28;20182;-68
2022/10/04 06:22:25;;;;;;;0.50;0.50;;;9.30;99.90;;;;;;5013755;28;20182;-70
2022/10/04 06:24:57;;;;;;;0.47;0.47;;;9.30;99.90;;;;;;5013777;28;20191;-69
2022/10/04 06:27:47;;;;;;;0.57;0.57;;;9.40;99.90;;;;;;5013864;28;20446;-69
2022/10/04 06:30:15;;;;;;;0.52;0.52;;;9.40;99.90;;;;;;5017582;28;20258;-69
2022/10/04 06:33:04;;;;;;;0.88;0.88;;;9.50;99.90;;;;;;5018040;28;20168;-67
2022/10/04 06:35:44;;;;;;;0.40;0.40;;;9.50;99.90;;;;;;5017993;28;20333;-67
2022/10/04 06:38:31;;;;;;;0.50;0.50;;;9.60;99.90;;;;;;5017602;28;20175;-70
2022/10/04 06:41:23;;;;;;;1.38;1.38;;;9.70;99.90;;;;;;5017619;28;20199;-67
2022/10/04 06:43:52;;;;;;;0.68;0.68;;;9.90;99.90;;;;;;4999209;28;20249;-69
2022/10/04 06:46:36;;;;;;;0.60;0.60;;;10.10;99.90;;;;;;5016175;28;20219;-70
2022/10/04 06:49:33;;;;;;;0.40;0.40;;;10.30;99.90;;;;;;5017853;28;20168;-69
2022/10/04 06:52:11;;;;;;;1.88;1.77;;;10.50;99.90;;;;;;5017848;28;20171;-68
2022/10/04 06:55:02;;;;;;;0.75;0.75;;;11.00;99.90;;;;;;5014910;28;20671;-69
2022/10/04 06:58:07;;;;;;;0.40;0.40;;;10.90;99.90;;;;;;5017865;28;20559;-68
2022/10/04 07:00:44;;;;;;;0.43;0.43;;;11.20;99.90;;;;;;5017222;28;20179;-69
2022/10/04 07:03:11;;;;;;;1.67;1.33;;;11.40;99.90;;;;;;5017127;28;20507;-70
2022/10/04 07:06:00;;;;;;;1.00;1.00;;;11.70;99.90;;;;;;5015899;28;20912;-70
2022/10/04 07:08:32;;;;;;;0.50;0.50;;;12.00;99.90;;;;;;5015772;28;20417;-69
2022/10/04 07:11:16;;;;;;;1.00;1.00;;;12.10;99.90;;;;;;5015589;28;20411;-70
2022/10/04 07:14:11;;;;;;;0.93;0.93;;;12.30;99.90;;;;;;5016958;28;20409;-69
2022/10/04 07:16:56;;;;;;;1.87;1.73;;;12.60;99.90;;;;;;5014342;28;20438;-71
2022/10/04 07:19:28;;;;;;;1.00;1.00;;;12.80;99.90;;;;;;5016434;28;20887;-71
2022/10/04 07:22:07;;;;;;;0.80;0.80;;;12.80;99.90;;;;;;5016840;28;20405;-70
2022/10/04 07:24:46;;;;;;;2.03;1.93;;;13.00;99.90;;;;;;5017305;28;20497;-71
2022/10/04 07:27:33;;;;;;;0.73;0.73;;;12.90;99.90;;;;;;5017320;28;20512;-72
2022/10/04 07:30:03;;;;;;;0.60;0.50;;;13.00;99.90;;;;;;5016922;28;20460;-71
2022/10/04 07:32:42;;;;;;;1.40;1.30;;;13.10;99.90;;;;;;5017046;28;20418;-71
2022/10/04 07:35:08;;;;;;;0.70;0.70;;;13.20;99.90;;;;;;5016921;28;20454;-69
2022/10/04 07:37:45;;;;;;;4.37;2.50;;;13.30;99.90;;;;;;5015868;28;20942;-69
2022/10/04 07:40:34;;;;;;;6.10;3.47;;;13.50;99.90;;;;;;5015789;28;20168;-70
2022/10/04 07:43:21;;;;;;;1.27;1.27;;;13.70;99.90;;;;;;5016520;28;20452;-70
2022/10/04 07:45:48;;;;;;;0.87;0.87;;;13.80;99.90;;;;;;5014476;28;20450;-70
2022/10/04 07:48:21;;;;;;;1.07;1.07;;;13.90;99.90;;;;;;5017062;28;20417;-70
2022/10/04 07:51:24;;;;;;;1.33;1.23;;;13.90;99.90;;;;;;5015172;28;20436;-70
2022/10/04 07:54:23;;;;;;;0.87;0.87;;;14.10;99.90;;;;;;5016842;28;20398;-70
2022/10/04 07:56:58;;;;;;;1.97;1.17;;;14.40;99.90;;;;;;5015115;28;20535;-70
2022/10/04 08:00:11;;;;;;;1.43;1.43;;;14.60;99.90;;;;;;5016172;28;20405;-70
2022/10/04 08:03:07;;;;;;;0.73;0.70;;;14.80;99.90;;;;;;5007169;28;20429;-69
2022/10/04 08:05:44;;;;;;;1.33;1.20;;;15.00;99.90;;;;;;5014248;28;20477;-70
2022/10/04 08:08:13;;;;;;;2.00;0.93;;;15.10;99.90;;;;;;5016257;28;20398;-70
2022/10/04 08:11:00;;;;;;;2.30;1.27;;;15.20;99.90;;;;;;5015990;28;20833;-71
2022/10/04 08:14:00;;;;;;;0.80;0.80;;;15.10;99.90;;;;;;5016062;28;20395;-70
2022/10/04 08:17:11;;;;;;;0.83;0.83;;;15.30;99.90;;;;;;5016339;28;20434;-69
2022/10/04 08:20:01;;;;;;;1.10;1.10;;;15.50;99.90;;;;;;5016068;28;20859;-70
2022/10/04 08:22:39;;;;;;;1.80;1.20;;;15.80;99.40;;;;;;5014871;28;20899;-71
2022/10/04 08:25:53;;;;;;;1.10;1.10;;;16.00;99.50;;;;;;5014760;28;20434;-71
2022/10/04 08:31:37;;;;;;;1.20;1.20;;;16.30;99.30;;;;;;5015891;28;20480;-70
2022/10/04 08:34:30;;;;;;;1.07;1.00;;;16.80;99.50;;;;;;5016200;28;20434;-70
2022/10/04 08:37:17;;;;;;;1.03;1.03;;;16.90;97.80;;;;;;5016028;28;20445;-69
2022/10/04 08:39:54;;;;;;;1.70;1.10;;;17.30;99.10;;;;;;5015902;28;20405;-70
2022/10/04 08:42:48;;;;;;;0.50;0.50;;;17.80;98.20;;;;;;5016090;28;20402;-68
2022/10/04 08:45:22;;;;;;;0.50;0.50;;;18.40;97.20;;;;;;5015489;28;20444;-69
2022/10/04 08:48:05;;;;;;;0.97;0.87;;;19.40;95.60;;;;;;5014274;28;20437;-69
2022/10/04 08:50:48;;;;;;;0.50;0.50;;;20.20;91.50;;;;;;5015067;28;20446;-69
2022/10/04 08:54:03;;;;;;;1.03;1.03;;;21.40;91.20;;;;;;5013120;28;20433;-71
2022/10/04 08:56:43;;;;;;;0.57;0.57;;;22.90;88.00;;;;;;5014036;28;20764;-71
2022/10/04 08:59:14;;;;;;;0.43;0.43;;;24.50;81.60;;;;;;5013555;28;20408;-70
2022/10/04 09:02:05;;;;;;;0.50;0.50;;;25.30;76.60;;;;;;5013985;28;20459;-70
2022/10/04 09:04:59;;;;;;;0.60;0.60;;;25.70;71.00;;;;;;5014825;28;20454;-71
2022/10/04 09:07:58;;;;;;;0.70;0.70;;;25.80;72.00;;;;;;5014830;28;20446;-70
2022/10/04 09:11:03;;;;;;;0.70;0.70;;;26.60;70.00;;;;;;5013731;28;20485;-71
2022/10/04 09:13:32;;;;;;;0.50;0.50;;;27.40;66.50;;;;;;5014615;28;20477;-71
2022/10/04 09:16:13;;;;;;;0.50;0.50;;;27.80;64.00;;;;;;5013516;28;20422;-71
2022/10/04 09:19:27;;;;;;;1.70;0.80;;;28.10;60.80;;;;;;5013453;28;20414;-71
2022/10/04 09:21:56;;;;;;;0.63;0.63;;;28.20;59.10;;;;;;4971803;28;20424;-70
2022/10/04 09:24:33;;;;;;;0.67;0.67;;;28.50;57.60;;;;;;4972653;28;20415;-72
2022/10/04 09:27:18;;;;;;;0.80;0.80;;;28.80;56.50;;;;;;4987751;28;20971;-70
2022/10/04 09:30:21;;;;;;;0.50;0.50;;;29.00;56.20;;;;;;5012746;28;20414;-70
2022/10/04 09:33:29;;;;;;;0.50;0.50;;;29.30;55.60;;;;;;4993562;28;20414;-71
2022/10/04 09:36:11;;;;;;;1.00;0.77;;;28.80;55.20;;;;;;5009053;28;20439;-71
2022/10/04 09:39:02;;;;;;;0.43;0.43;;;28.40;55.50;;;;;;5014366;28;20391;-71
2022/10/04 09:42:04;;;;;;;0.60;0.60;;;28.00;55.20;;;;;;5014407;28;20399;-69
2022/10/04 09:44:43;;;;;;;0.63;0.60;;;27.90;55.70;;;;;;5014276;28;20781;-71
2022/10/04 09:47:37;;;;;;;1.53;0.83;;;27.70;56.30;;;;;;5014106;28;20453;-71
2022/10/04 09:50:30;;;;;;;0.50;0.50;;;27.50;56.20;;;;;;5014145;28;20406;-71
2022/10/04 09:53:20;;;;;;;0.80;0.53;;;27.40;56.70;;;;;;5014149;28;20402;-70
2022/10/04 09:55:52;;;;;;;0.40;0.40;;;27.30;56.20;;;;;;5014312;28;20434;-71
2022/10/04 09:58:29;;;;;;;0.40;0.40;;;27.60;56.40;;;;;;5013908;28;20498;-71
2022/10/04 10:01:07;;;;;;;0.83;0.40;;;27.70;55.80;;;;;;5012973;28;20409;-71
2022/10/04 10:04:11;;;;;;;0.60;0.53;;;27.70;54.80;;;;;;5013438;28;20416;-71
2022/10/04 10:06:46;;;;;;;0.87;0.60;;;27.20;55.50;;;;;;5013883;28;20859;-70
2022/10/04 10:15:39;;;;;;;0.50;0.50;;;26.60;56.50;;;;;;5012307;28;20469;-71
2022/10/04 10:18:26;;;;;;;0.50;0.50;;;26.40;57.60;;;;;;5008997;28;20422;-71
2022/10/04 10:21:13;;;;;;;0.63;0.63;;;26.20;57.40;;;;;;5012658;28;20403;-71
2022/10/04 10:23:54;;;;;;;0.40;0.40;;;26.00;57.20;;;;;;5012475;28;20417;-72
2022/10/04 10:27:00;;;;;;;0.50;0.50;;;25.90;57.60;;;;;;5011475;28;20454;-70
2022/10/04 10:30:18;;;;;;;0.50;0.50;;;25.70;57.10;;;;;;5013503;28;20446;-72
2022/10/04 10:33:01;;;;;;;0.57;0.57;;;25.40;57.00;;;;;;4972707;28;20444;-71
2022/10/04 10:35:47;;;;;;;0.60;0.60;;;25.00;58.20;;;;;;5012488;28;20447;-71
2022/10/04 10:38:16;;;;;;;0.60;0.53;;;24.90;58.40;;;;;;5014075;28;20385;-71
2022/10/04 10:41:09;;;;;;;0.77;0.47;;;24.70;56.70;;;;;;5012932;28;20409;-71
2022/10/04 10:44:01;;;;;;;1.07;0.60;;;24.50;55.20;;;;;;5013455;28;20737;-70
2022/10/04 10:46:42;;;;;;;0.60;0.50;;;24.30;58.80;;;;;;5013390;28;20523;-70
2022/10/04 10:49:43;;;;;;;0.40;0.40;;;23.80;57.90;;;;;;5012320;28;20425;-71
2022/10/04 10:52:35;;;;;;;0.60;0.50;;;23.00;59.40;;;;;;5013630;28;20391;-71
2022/10/04 10:55:21;;;;;;;1.23;0.63;;;22.80;59.60;;;;;;5011061;28;20435;-69
2022/10/04 10:58:04;;;;;;;0.40;0.40;;;22.60;61.10;;;;;;5013043;28;20419;-71
2022/10/04 11:00:49;;;;;;;0.40;0.37;;;22.30;58.70;;;;;;5013265;28;20396;-72
2022/10/04 11:03:51;;;;;;;0.60;0.60;;;22.10;66.10;;;;;;5012194;28;20776;-71
2022/10/04 11:06:31;;;;;;;0.40;0.40;;;21.90;67.20;;;;;;5013138;28;20541;-71
2022/10/04 11:09:22;;;;;;;0.40;0.40;;;21.50;62.10;;;;;;5013198;28;20403;-71
2022/10/04 11:12:08;;;;;;;0.53;0.53;;;21.30;65.00;;;;;;5013539;28;20426;-69
2022/10/04 11:15:21;;;;;;;0.70;0.70;;;20.90;67.80;;;;;;5013311;28;20475;-70
2022/10/04 11:18:18;;;;;;;0.90;0.83;;;20.70;61.70;;;;;;4980715;28;20475;-69
2022/10/04 11:21:06;;;;;;;1.33;0.50;;;20.40;70.00;;;;;;5015447;28;20931;-72
2022/10/04 11:23:50;;;;;;;0.40;0.40;;;20.50;62.70;;;;;;5017280;28;20390;-69
2022/10/04 11:26:50;;;;;;;0.40;0.40;;;20.50;73.30;;;;;;5016752;28;20457;-68
2022/10/04 11:29:27;;;;;;;0.43;0.43;;;20.30;69.80;;;;;;5016534;28;20409;-70
2022/10/04 11:32:06;;;;;;;0.50;0.50;;;20.10;62.80;;;;;;5017025;28;20400;-71
2022/10/04 11:35:11;;;;;;;0.50;0.50;;;19.90;66.80;;;;;;5015110;28;20969;-71
2022/10/04 11:38:01;;;;;;;0.30;0.30;;;19.90;66.40;;;;;;5015991;28;20969;-71
2022/10/04 11:41:06;;;;;;;0.50;0.47;;;19.90;69.60;;;;;;5009281;28;20422;-71
2022/10/04 11:44:15;;;;;;;0.50;0.40;;;19.90;68.80;;;;;;4980225;28;20924;-71
2022/10/04 11:46:42;;;;;;;0.40;0.40;;;19.90;67.90;;;;;;4975104;28;20482;-70
2022/10/04 11:49:35;;;;;;;0.40;0.40;;;19.90;70.50;;;;;;4975214;28;20889;-72
2022/10/04 11:52:39;;;;;;;0.50;0.50;;;20.00;62.40;;;;;;5002366;28;20422;-71
2022/10/04 11:55:40;;;;;;;0.40;0.40;;;19.80;59.90;;;;;;5016317;28;20524;-70
2022/10/04 11:58:45;;;;;;;0.60;0.60;;;19.60;68.70;;;;;;5014959;28;20403;-70
2022/10/04 12:01:30;;;;;;;1.43;0.50;;;19.40;69.10;;;;;;5014078;28;20445;-71
2022/10/04 12:04:08;;;;;;;0.30;0.30;;;19.50;72.70;;;;;;5016251;28;20483;-71
2022/10/04 12:06:59;;;;;;;0.40;0.40;;;19.40;66.80;;;;;;5016001;28;20481;-71
2022/10/04 12:09:50;;;;;;;0.40;0.40;;;19.30;67.90;;;;;;5015795;28;20965;-69
2022/10/04 12:12:51;;;;;;;0.60;0.60;;;19.30;72.90;;;;;;5016182;28;20390;-70
2022/10/04 12:15:54;;;;;;;0.30;0.30;;;19.30;73.00;;;;;;5015874;28;20847;-70
2022/10/04 12:18:31;;;;;;;0.40;0.40;;;19.20;75.00;;;;;;5016048;28;20402;-71
2022/10/04 12:21:22;;;;;;;0.40;0.40;;;19.20;73.70;;;;;;5015808;28;20401;-71
2022/10/04 12:23:57;;;;;;;0.47;0.47;;;19.20;73.50;;;;;;5016137;28;20404;-71
2022/10/04 12:26:46;;;;;;;1.53;0.67;;;19.10;73.70;;;;;;5015533;28;20460;-71
2022/10/04 12:29:30;;;;;;;0.50;0.50;;;19.00;75.00;;;;;;5015430;28;20401;-71
2022/10/04 12:32:05;;;;;;;0.30;0.30;;;18.80;72.70;;;;;;5015734;28;20392;-71
2022/10/04 12:34:46;;;;;;;0.90;0.90;;;18.70;71.30;;;;;;5015748;28;20752;-70
2022/10/04 12:37:29;;;;;;;0.70;0.60;;;18.80;74.40;;;;;;5015529;28;20443;-69
2022/10/04 12:40:16;;;;;;;0.50;0.50;;;18.90;77.30;;;;;;5015532;28;20401;-69
2022/10/04 12:42:54;;;;;;;0.40;0.40;;;18.90;81.30;;;;;;5015616;28;20424;-69
2022/10/04 12:45:51;;;;;;;0.40;0.40;;;18.90;79.30;;;;;;5015574;28;20431;-70
2022/10/04 12:48:25;;;;;;;0.40;0.40;;;18.80;79.80;;;;;;5015320;28;20437;-71
2022/10/04 12:51:08;;;;;;;0.30;0.30;;;18.60;81.30;;;;;;5015078;28;20393;-71
2022/10/04 12:53:50;;;;;;;0.30;0.30;;;18.50;82.70;;;;;;5015279;28;20418;-71
2022/10/04 12:56:40;;;;;;;0.30;0.30;;;18.30;82.80;;;;;;5015175;28;20880;-70
2022/10/04 12:59:27;;;;;;;0.30;0.30;;;18.20;84.70;;;;;;5015143;28;20491;-71
2022/10/04 13:01:53;;;;;;;0.57;0.57;;;18.00;84.50;;;;;;5015130;28;20402;-69
2022/10/04 13:04:38;;;;;;;0.37;0.37;;;17.80;83.50;;;;;;5015110;28;20459;-70
2022/10/04 13:07:04;;;;;;;0.30;0.30;;;17.80;84.40;;;;;;5015109;28;20200;-71
2022/10/04 13:09:44;;;;;;;0.50;0.50;;;17.80;85.50;;;;;;5014715;28;20409;-70
2022/10/04 13:12:50;;;;;;;0.87;0.67;;;17.70;86.30;;;;;;5015197;28;20488;-71
2022/10/04 13:16:05;;;;;;;0.50;0.50;;;17.50;86.90;;;;;;4994292;28;20517;-69
2022/10/04 13:18:51;;;;;;;0.40;0.40;;;17.30;87.40;;;;;;5011879;28;20429;-69
2022/10/04 13:21:40;;;;;;;0.37;0.37;;;17.20;86.50;;;;;;5014937;28;20398;-71
2022/10/04 13:24:55;;;;;;;0.40;0.40;;;17.10;88.40;;;;;;5008269;28;20908;-70
2022/10/04 13:27:27;;;;;;;0.50;0.50;;;17.10;89.20;;;;;;5014557;28;20454;-70
2022/10/04 13:30:01;;;;;;;1.00;1.00;;;17.00;90.30;;;;;;5014403;28;20421;-71
2022/10/04 13:32:35;;;;;;;0.50;0.40;;;17.00;90.90;;;;;;5014561;28;20411;-68
2022/10/04 13:35:27;;;;;;;0.47;0.47;;;16.90;90.70;;;;;;5014466;28;20425;-69
2022/10/04 13:38:11;;;;;;;0.60;0.60;;;16.80;91.80;;;;;;5013882;28;20387;-70
2022/10/04 13:40:39;;;;;;;0.40;0.40;;;16.70;92.20;;;;;;5014214;28;20407;-70
2022/10/04 13:43:24;;;;;;;0.53;0.53;;;16.60;92.90;;;;;;5014385;28;20486;-71
2022/10/04 13:45:57;;;;;;;2.20;1.07;;;16.60;93.40;;;;;;5013982;28;20464;-70
2022/10/04 13:48:36;;;;;;;0.40;0.40;;;16.50;94.20;;;;;;5014136;28;20417;-70
2022/10/04 13:51:32;;;;;;;0.40;0.40;;;16.40;94.90;;;;;;5014103;28;20395;-69
2022/10/04 13:57:16;;;;;;;0.40;0.40;;;16.10;95.70;;;;;;5014369;28;20435;-69
2022/10/04 14:00:04;;;;;;;0.80;0.80;;;16.10;95.40;;;;;;5013961;28;20432;-71
2022/10/04 14:02:52;;;;;;;0.50;0.50;;;16.10;95.90;;;;;;5014261;28;20405;-69
2022/10/04 14:05:36;;;;;;;0.40;0.40;;;16.00;96.70;;;;;;5014157;28;20426;-71
2022/10/04 14:08:29;;;;;;;0.40;0.40;;;15.90;97.40;;;;;;5014332;28;20410;-71
2022/10/04 14:11:20;;;;;;;1.03;0.70;;;15.80;98.00;;;;;;5013981;28;20394;-70
2022/10/04 14:14:17;;;;;;;1.27;1.27;;;15.80;98.20;;;;;;5012645;28;21569;-70
2022/10/04 14:17:12;;;;;;;0.67;0.67;;;15.70;98.30;;;;;;5013822;28;20418;-71
2022/10/04 14:19:57;;;;;;;0.93;0.60;;;15.60;98.70;;;;;;5013696;28;20401;-70
2022/10/04 14:22:42;;;;;;;0.37;0.37;;;15.60;99.00;;;;;;5013714;28;20495;-70